Thursday, November 23, 2017, 2:15 AM EST
Back to Local

KSWF, Newburgh / Stewart

Location: New Windsor, NY, United States Lat: 41.5
Local Time: 2:15 AM EST ( 7:15 GMT) Lon: -74.1
Time Zone: US/Eastern Elev: 492 ft

Show me the last for .
Show Decoded

2017-11-23 01:45 METAR KSWF 230645Z 30010KT 10SM SKC M01/M06 A3007 =
2017-11-23 00:45 METAR KSWF 230545Z 30010KT 10SM SKC M01/M05 A3007 =
2017-11-22 23:45 METAR KSWF 230445Z 30012KT 10SM BKN040 00/M05 A3007 =
2017-11-22 22:45 METAR KSWF 230345Z 30012KT 10SM BKN040 01/M05 A3007 =
2017-11-22 21:45 METAR KSWF 230245Z 31008KT 10SM BKN040 02/M05 A3005 =
2017-11-22 20:45 METAR KSWF 230145Z 32012G20KT 10SM BKN040 02/M05 A3005 =
2017-11-22 19:45 METAR KSWF 230045Z 32012G20KT 10SM BKN040 03/M04 A3004 =
2017-11-22 18:45 METAR KSWF 222345Z 32012G20KT 10SM BKN040 03/M03 A3003 =
2017-11-22 17:45 METAR KSWF 222245Z 32015G22KT 10SM BKN040 BKN060 04/M02 A3001 =
2017-11-22 16:45 METAR KSWF 222145Z 33015G22KT 10SM FEW030 BKN060 05/M01 A2999 =
2017-11-22 15:45 METAR KSWF 222045Z 32014KT 10SM FEW030 BKN060 05/M01 A2997 =
2017-11-22 14:45 METAR KSWF 221945Z 34014KT 10SM FEW030 BKN060 08/00 A2994 =
2017-11-22 13:45 METAR KSWF 221845Z VRB06KT 10SM FEW030 BKN060 08/05 A2992 =
2017-11-22 12:45 METAR KSWF 221745Z 30007KT 10SM BKN025 08/07 A2991 =
2017-11-22 11:45 METAR KSWF 221645Z 00000KT 10SM OVC050 08/07 A2989 =
2017-11-22 10:45 METAR KSWF 221545Z 00000KT 10SM OVC050 08/07 A2990 =
2017-11-22 09:45 METAR KSWF 221445Z 00000KT 10SM OVC050 06/06 A2991 =
2017-11-22 08:45 METAR KSWF 221345Z 29006KT 6SM -RA BR SCT040 OVC060 04/04 A2993 =
2017-11-22 07:45 METAR KSWF 221245Z 30008KT 6SM -RA BR SCT050 OVC070 04/04 A2992 =
2017-11-22 06:45 METAR KSWF 221145Z 00000KT 10SM SCT070 OVC120 04/03 A2991 =
2017-11-22 05:45 METAR KSWF 221045Z 00000KT 10SM BKN080 03/02 A2990 =
2017-11-22 04:45 METAR KSWF 220945Z 00000KT 10SM SCT030 03/01 A2994 =
2017-11-22 03:45 METAR KSWF 220845Z 00000KT 10SM SKC 03/01 A2995 =
2017-11-22 02:45 METAR KSWF 220745Z 00000KT 10SM SKC 02/01 A2997 =

Support USWX by starting your Amazon purchase here.